createdAt,value
2018-07-22T00:02:24.461Z,20.38
2018-07-22T00:04:50.774Z,20.32
2018-07-22T00:07:17.084Z,20.21
2018-07-22T00:09:43.398Z,20.11
2018-07-22T00:12:09.719Z,20.08
2018-07-22T00:14:36.070Z,20.02
2018-07-22T00:17:02.388Z,19.95
2018-07-22T00:19:28.701Z,19.93
2018-07-22T00:21:55.027Z,20.08
2018-07-22T00:24:21.337Z,20.20
2018-07-22T00:26:47.648Z,20.12
2018-07-22T00:29:14.004Z,20.12
2018-07-22T00:31:40.283Z,19.83
2018-07-22T00:34:06.607Z,19.62
2018-07-22T00:36:32.918Z,19.55
2018-07-22T00:38:59.269Z,19.57
2018-07-22T00:41:25.575Z,19.54
2018-07-22T00:43:51.923Z,19.52
2018-07-22T00:46:18.237Z,19.43
2018-07-22T00:48:44.554Z,19.34
2018-07-22T00:51:10.905Z,19.34
2018-07-22T00:53:37.220Z,19.24
2018-07-22T00:56:03.584Z,19.34
2018-07-22T00:58:29.895Z,19.41
2018-07-22T01:00:56.209Z,19.50
2018-07-22T01:03:22.564Z,19.47
2018-07-22T01:05:48.878Z,19.34
2018-07-22T01:08:15.194Z,19.36
2018-07-22T01:10:41.514Z,19.39
2018-07-22T01:13:07.826Z,19.39
2018-07-22T01:15:34.233Z,19.19
2018-07-22T01:18:00.557Z,19.18
2018-07-22T01:20:26.863Z,19.31
2018-07-22T01:22:53.177Z,19.29
2018-07-22T01:25:19.561Z,19.27
2018-07-22T01:27:45.913Z,19.29
2018-07-22T01:30:12.275Z,19.18
2018-07-22T01:32:38.600Z,19.21
2018-07-22T01:35:04.926Z,19.26
2018-07-22T01:37:31.233Z,19.25
2018-07-22T01:39:57.546Z,19.26
2018-07-22T01:42:23.859Z,19.22
2018-07-22T01:44:50.171Z,19.29
2018-07-22T01:47:16.492Z,19.33
2018-07-22T01:49:42.811Z,19.32
2018-07-22T01:52:09.136Z,19.25
2018-07-22T01:54:35.445Z,19.00
2018-07-22T01:57:01.797Z,18.81
2018-07-22T01:59:28.098Z,18.71
2018-07-22T02:01:54.414Z,18.68
2018-07-22T02:04:20.740Z,18.66
2018-07-22T02:06:47.068Z,18.61
2018-07-22T02:09:13.369Z,18.56
2018-07-22T02:11:39.688Z,18.44
2018-07-22T02:14:05.995Z,18.40
2018-07-22T02:16:32.317Z,18.52
2018-07-22T02:18:58.628Z,18.44
2018-07-22T02:21:24.940Z,18.24
2018-07-22T02:23:51.287Z,18.33
2018-07-22T02:26:17.604Z,18.43
2018-07-22T02:28:43.920Z,18.37
2018-07-22T02:31:10.235Z,18.28
2018-07-22T02:33:36.546Z,18.30
2018-07-22T02:36:02.865Z,18.34
2018-07-22T02:38:29.176Z,18.37
2018-07-22T02:40:55.490Z,18.43
2018-07-22T02:43:21.798Z,18.56
2018-07-22T02:45:48.114Z,18.68
2018-07-22T02:48:14.425Z,18.70
2018-07-22T02:50:40.742Z,18.67
2018-07-22T02:53:07.051Z,18.67
2018-07-22T02:55:33.354Z,18.75
2018-07-22T02:57:59.663Z,18.72
2018-07-22T03:00:25.981Z,18.54
2018-07-22T03:02:52.287Z,18.48
2018-07-22T03:05:18.596Z,18.40
2018-07-22T03:07:44.950Z,18.45
2018-07-22T03:10:11.266Z,18.53
2018-07-22T03:12:37.585Z,18.57
2018-07-22T03:15:03.900Z,18.59
2018-07-22T03:17:30.250Z,18.47
2018-07-22T03:19:56.560Z,18.55
2018-07-22T03:22:22.871Z,18.60
2018-07-22T03:24:49.184Z,18.70
2018-07-22T03:27:15.498Z,18.65
2018-07-22T03:29:41.844Z,18.45
2018-07-22T03:32:08.159Z,18.43
2018-07-22T03:34:34.469Z,18.36
2018-07-22T03:37:00.779Z,18.39
2018-07-22T03:39:27.132Z,18.55
2018-07-22T03:41:53.448Z,18.49
2018-07-22T03:44:19.803Z,18.40
2018-07-22T03:46:46.076Z,18.32
2018-07-22T03:49:12.384Z,18.23
2018-07-22T03:51:38.699Z,18.23
2018-07-22T03:54:05.008Z,18.28
2018-07-22T03:56:31.316Z,18.27
2018-07-22T03:58:57.625Z,18.33
2018-07-22T04:01:23.930Z,18.32
2018-07-22T04:03:50.239Z,18.27
2018-07-22T04:06:16.557Z,18.29
2018-07-22T04:08:42.868Z,18.47
2018-07-22T04:11:09.183Z,18.59
2018-07-22T04:13:35.494Z,18.64
2018-07-22T04:16:01.814Z,18.65
2018-07-22T04:18:28.131Z,18.73
2018-07-22T04:20:54.484Z,18.73
2018-07-22T04:23:20.800Z,18.83
2018-07-22T04:25:47.119Z,19.03
2018-07-22T04:28:13.426Z,19.07
2018-07-22T04:30:39.755Z,19.09
2018-07-22T04:33:06.049Z,18.92
2018-07-22T04:35:32.365Z,18.97
2018-07-22T04:37:58.681Z,19.06
2018-07-22T04:40:24.983Z,19.10
2018-07-22T04:42:51.321Z,19.33
2018-07-22T04:45:17.642Z,19.60
2018-07-22T04:47:43.951Z,19.79
2018-07-22T04:50:10.260Z,19.87
2018-07-22T04:52:36.573Z,20.03
2018-07-22T04:55:02.885Z,20.19
2018-07-22T04:57:29.200Z,20.21
2018-07-22T04:59:55.509Z,20.46
2018-07-22T05:02:21.824Z,20.67
2018-07-22T05:04:48.140Z,20.75
2018-07-22T05:07:14.453Z,20.95
2018-07-22T05:09:40.764Z,21.22
2018-07-22T05:12:07.079Z,21.34
2018-07-22T05:14:33.393Z,21.37
2018-07-22T05:16:59.722Z,21.73
2018-07-22T05:19:26.039Z,22.04
2018-07-22T05:21:52.406Z,22.38
2018-07-22T05:24:18.769Z,22.41
2018-07-22T05:26:45.074Z,22.66
2018-07-22T05:29:11.383Z,23.04
2018-07-22T05:31:37.712Z,24.21
2018-07-22T05:34:04.021Z,25.23
2018-07-22T05:36:30.337Z,25.82
2018-07-22T05:38:56.649Z,25.90
2018-07-22T05:41:22.959Z,25.94
2018-07-22T05:43:49.272Z,25.80
2018-07-22T05:46:15.586Z,26.21
2018-07-22T05:48:41.906Z,26.76
2018-07-22T05:51:08.220Z,26.87
2018-07-22T05:53:34.532Z,27.13
2018-07-22T05:56:00.852Z,27.37
2018-07-22T05:58:27.162Z,27.51
2018-07-22T06:00:53.474Z,26.75
2018-07-22T06:03:19.790Z,26.85
2018-07-22T06:05:46.106Z,27.25
2018-07-22T06:08:12.418Z,26.05
2018-07-22T06:10:38.733Z,27.15
2018-07-22T06:13:05.059Z,26.93
2018-07-22T06:15:31.377Z,26.44
2018-07-22T06:17:57.687Z,26.37
2018-07-22T06:20:24.006Z,26.92
2018-07-22T06:22:50.317Z,27.19
2018-07-22T06:25:16.631Z,27.82
2018-07-22T06:27:42.981Z,27.39
2018-07-22T06:30:09.341Z,25.34
2018-07-22T06:32:35.691Z,24.24
2018-07-22T06:35:01.965Z,23.30
2018-07-22T06:37:28.275Z,23.03
2018-07-22T06:39:54.640Z,23.11
2018-07-22T06:42:20.952Z,24.23
2018-07-22T06:44:47.274Z,24.04
2018-07-22T06:47:13.586Z,24.64
2018-07-22T06:49:39.940Z,24.76
2018-07-22T06:52:06.247Z,25.25
2018-07-22T06:54:32.567Z,25.57
2018-07-22T06:56:58.886Z,26.72
2018-07-22T06:59:25.235Z,27.77
2018-07-22T07:01:51.517Z,28.14
2018-07-22T07:04:17.828Z,28.07
2018-07-22T07:06:44.157Z,28.12
2018-07-22T07:09:10.472Z,28.10
2018-07-22T07:11:36.823Z,28.38
2018-07-22T07:14:03.143Z,28.95
2018-07-22T07:16:29.458Z,29.36
2018-07-22T07:18:55.806Z,29.75
2018-07-22T07:21:22.121Z,29.87
2018-07-22T07:23:48.434Z,29.94
2018-07-22T07:26:14.758Z,29.86
2018-07-22T07:28:41.072Z,30.33
2018-07-22T07:31:07.389Z,29.95
2018-07-22T07:33:33.786Z,29.74
2018-07-22T07:36:00.057Z,29.67
2018-07-22T07:38:26.367Z,29.73
2018-07-22T07:40:52.733Z,30.06
2018-07-22T07:43:19.047Z,30.16
2018-07-22T07:45:45.365Z,30.64
2018-07-22T07:48:11.685Z,30.49
2018-07-22T07:50:37.998Z,29.64
2018-07-22T07:53:04.307Z,29.32
2018-07-22T07:55:30.620Z,28.89
2018-07-22T07:57:56.934Z,29.92
2018-07-22T08:00:23.271Z,30.43
2018-07-22T08:02:49.583Z,30.14
2018-07-22T08:05:15.896Z,30.38
2018-07-22T08:07:42.215Z,30.85
2018-07-22T08:10:08.528Z,31.13
2018-07-22T08:12:34.848Z,31.50
2018-07-22T08:15:01.156Z,31.53
2018-07-22T08:17:27.508Z,31.29
2018-07-22T08:19:53.821Z,31.44
2018-07-22T08:22:20.131Z,31.06
2018-07-22T08:24:46.445Z,30.84
2018-07-22T08:27:12.758Z,30.77
2018-07-22T08:29:39.066Z,31.15
2018-07-22T08:32:05.386Z,31.20
2018-07-22T08:34:31.711Z,31.27
2018-07-22T08:36:58.029Z,31.25
2018-07-22T08:39:24.375Z,31.18
2018-07-22T08:41:50.687Z,31.21
2018-07-22T08:44:16.995Z,30.81
2018-07-22T08:46:43.309Z,31.09
2018-07-22T08:49:09.624Z,31.16
2018-07-22T08:51:35.993Z,31.54
2018-07-22T08:54:02.310Z,31.59
2018-07-22T08:56:28.621Z,31.60
2018-07-22T08:58:54.953Z,31.62
2018-07-22T09:01:21.274Z,31.50
2018-07-22T09:03:47.591Z,31.59
2018-07-22T09:06:13.904Z,31.39
2018-07-22T09:08:40.215Z,31.33
2018-07-22T09:11:06.534Z,31.36
2018-07-22T09:13:32.843Z,31.42
2018-07-22T09:15:59.164Z,31.62
2018-07-22T09:18:25.489Z,31.54
2018-07-22T09:20:51.791Z,31.88
2018-07-22T09:23:18.139Z,32.06
2018-07-22T09:25:44.463Z,32.02
2018-07-22T09:28:10.782Z,31.80
2018-07-22T09:30:37.092Z,31.93
2018-07-22T09:33:03.406Z,32.39
2018-07-22T09:35:29.721Z,32.09
2018-07-22T09:37:56.029Z,31.93
2018-07-22T09:40:22.348Z,32.15
2018-07-22T09:42:48.658Z,32.68
2018-07-22T09:45:14.986Z,32.57
2018-07-22T09:47:41.301Z,32.43
2018-07-22T09:50:07.623Z,32.63
2018-07-22T09:52:33.932Z,32.60
2018-07-22T09:55:00.264Z,32.77
2018-07-22T09:57:26.578Z,32.89
2018-07-22T09:59:52.935Z,32.98
2018-07-22T10:02:19.265Z,33.35
2018-07-22T10:04:45.610Z,33.20
2018-07-22T10:07:11.886Z,32.76
2018-07-22T10:09:38.218Z,32.91
2018-07-22T10:12:04.539Z,33.05
2018-07-22T10:14:30.906Z,33.39
2018-07-22T10:16:57.223Z,33.75
2018-07-22T10:19:23.535Z,33.83
2018-07-22T10:21:49.886Z,33.45
2018-07-22T10:24:16.186Z,33.49
2018-07-22T10:26:42.510Z,33.74
2018-07-22T10:29:08.825Z,34.15
2018-07-22T10:31:35.146Z,34.41
2018-07-22T10:34:01.465Z,34.51
2018-07-22T10:36:27.769Z,34.39
2018-07-22T10:38:54.080Z,34.68
2018-07-22T10:41:20.431Z,34.21
2018-07-22T10:43:46.741Z,33.90
2018-07-22T10:46:13.051Z,34.51
2018-07-22T10:48:39.368Z,34.41
2018-07-22T10:51:05.755Z,34.68
2018-07-22T10:53:32.003Z,34.14
2018-07-22T10:55:58.311Z,34.11
2018-07-22T10:58:24.629Z,34.31
2018-07-22T11:00:50.947Z,34.41
2018-07-22T11:03:17.270Z,34.57
2018-07-22T11:05:43.607Z,34.17
2018-07-22T11:08:09.915Z,34.15
2018-07-22T11:10:36.234Z,34.78
2018-07-22T11:13:02.545Z,34.71
2018-07-22T11:15:28.916Z,34.75
2018-07-22T11:17:55.221Z,34.39
2018-07-22T11:20:21.532Z,34.43
2018-07-22T11:22:47.845Z,34.12
2018-07-22T11:25:14.158Z,33.79
2018-07-22T11:27:40.475Z,32.92
2018-07-22T11:30:06.777Z,32.66
2018-07-22T11:32:33.094Z,33.71
2018-07-22T11:34:59.399Z,34.10
2018-07-22T11:37:25.715Z,33.95
2018-07-22T11:39:52.033Z,33.89
2018-07-22T11:42:18.345Z,33.83
2018-07-22T11:44:44.661Z,33.80
2018-07-22T11:47:10.977Z,33.94
2018-07-22T11:49:37.292Z,34.57
2018-07-22T11:52:03.608Z,34.84
2018-07-22T11:54:29.974Z,34.96
2018-07-22T11:56:56.249Z,34.48
2018-07-22T11:59:22.600Z,34.54
2018-07-22T12:01:48.907Z,33.86
2018-07-22T12:04:15.225Z,34.16
2018-07-22T12:06:41.536Z,34.22
2018-07-22T12:09:07.898Z,33.59
2018-07-22T12:11:34.212Z,33.45
2018-07-22T12:14:00.529Z,33.20
2018-07-22T12:16:26.888Z,33.08
2018-07-22T12:18:53.251Z,32.60
2018-07-22T12:21:19.615Z,32.65
2018-07-22T12:23:45.867Z,32.82
2018-07-22T12:26:12.188Z,32.61
2018-07-22T12:28:38.495Z,32.33
2018-07-22T12:31:04.810Z,32.19
2018-07-22T12:33:31.124Z,32.12
2018-07-22T12:35:57.431Z,31.95
2018-07-22T12:38:23.740Z,31.80
2018-07-22T12:40:50.047Z,31.76
2018-07-22T12:43:16.356Z,31.77
2018-07-22T12:45:42.675Z,31.76
2018-07-22T12:48:08.984Z,32.04
2018-07-22T12:50:35.292Z,32.27
2018-07-22T12:53:01.603Z,32.45
2018-07-22T12:55:27.911Z,32.33
2018-07-22T12:57:54.225Z,32.25
2018-07-22T13:00:20.567Z,32.09
2018-07-22T13:02:46.875Z,31.95
2018-07-22T13:05:13.182Z,31.83
2018-07-22T13:07:39.494Z,31.73
2018-07-22T13:10:05.800Z,31.67
2018-07-22T13:12:32.111Z,31.64
2018-07-22T13:14:58.419Z,30.77
2018-07-22T13:17:24.728Z,28.09
2018-07-22T13:19:51.040Z,26.17
2018-07-22T13:22:17.357Z,25.36
2018-07-22T13:24:43.666Z,24.87
2018-07-22T13:27:09.998Z,24.56
2018-07-22T13:29:36.300Z,24.15
2018-07-22T13:32:02.611Z,24.30
2018-07-22T13:34:28.969Z,24.55
2018-07-22T13:36:55.300Z,25.29
2018-07-22T13:39:21.654Z,25.85
2018-07-22T13:41:48.028Z,25.62
2018-07-22T13:44:14.339Z,25.77
2018-07-22T13:46:40.693Z,26.08
2018-07-22T13:49:07.004Z,26.36
2018-07-22T13:51:33.312Z,26.97
2018-07-22T13:53:59.630Z,27.53
2018-07-22T13:56:25.939Z,27.32
2018-07-22T13:58:52.256Z,27.31
2018-07-22T14:01:18.573Z,27.43
2018-07-22T14:03:44.906Z,27.57
2018-07-22T14:06:11.215Z,27.59
2018-07-22T14:08:37.524Z,27.63
2018-07-22T14:11:03.889Z,27.65
2018-07-22T14:13:30.219Z,27.78
2018-07-22T14:15:56.587Z,27.96
2018-07-22T14:18:22.891Z,28.19
2018-07-22T14:20:49.212Z,28.37
2018-07-22T14:23:15.524Z,28.50
2018-07-22T14:25:41.835Z,28.58
2018-07-22T14:28:08.215Z,28.74
2018-07-22T14:30:34.460Z,28.82
2018-07-22T14:33:00.773Z,28.97
2018-07-22T14:35:27.088Z,29.03
2018-07-22T14:37:53.444Z,29.13
2018-07-22T14:40:19.757Z,29.27
2018-07-22T14:42:46.082Z,29.20
2018-07-22T14:45:12.392Z,29.10
2018-07-22T14:47:38.708Z,29.06
2018-07-22T14:50:05.026Z,29.11
2018-07-22T14:52:31.340Z,29.14
2018-07-22T14:54:57.652Z,29.21
2018-07-22T14:57:23.977Z,29.30
2018-07-22T14:59:50.304Z,29.41
2018-07-22T15:02:16.616Z,29.53
2018-07-22T15:04:42.931Z,29.56
2018-07-22T15:07:09.244Z,29.53
2018-07-22T15:09:35.561Z,29.52
2018-07-22T15:12:01.877Z,29.45
2018-07-22T15:14:28.197Z,29.38
2018-07-22T15:16:54.524Z,29.39
2018-07-22T15:19:20.844Z,29.43
2018-07-22T15:21:47.152Z,29.50
2018-07-22T15:24:13.468Z,29.46
2018-07-22T15:26:39.783Z,29.52
2018-07-22T15:29:06.131Z,29.60
2018-07-22T15:31:32.429Z,29.71
2018-07-22T15:33:58.752Z,29.68
2018-07-22T15:36:25.067Z,29.69
2018-07-22T15:38:51.382Z,29.70
2018-07-22T15:41:17.745Z,29.61
2018-07-22T15:43:44.051Z,29.58
2018-07-22T15:46:10.408Z,29.62
2018-07-22T15:48:36.724Z,29.64
2018-07-22T15:51:03.036Z,29.70
2018-07-22T15:53:29.403Z,29.76
2018-07-22T15:55:55.786Z,29.75
2018-07-22T15:58:22.042Z,29.81
2018-07-22T16:00:48.411Z,29.86
2018-07-22T16:03:14.720Z,29.90
2018-07-22T16:05:41.033Z,29.88
2018-07-22T16:08:07.351Z,29.85
2018-07-22T16:10:33.664Z,29.68
2018-07-22T16:12:59.971Z,29.40
2018-07-22T16:15:26.333Z,29.33
2018-07-22T16:17:52.743Z,29.25
2018-07-22T16:20:19.066Z,29.19
2018-07-22T16:22:45.422Z,29.05
2018-07-22T16:25:11.734Z,28.93
2018-07-22T16:27:38.047Z,28.78
2018-07-22T16:30:04.396Z,28.69
2018-07-22T16:32:30.705Z,28.47
2018-07-22T16:34:57.065Z,28.12
2018-07-22T16:37:23.384Z,28.12
2018-07-22T16:39:49.697Z,28.07
2018-07-22T16:42:16.052Z,27.98
2018-07-22T16:44:42.322Z,27.81
2018-07-22T16:47:08.628Z,27.67
2018-07-22T16:49:34.941Z,27.51
2018-07-22T16:52:01.288Z,27.36
2018-07-22T16:54:27.605Z,27.23
2018-07-22T16:56:53.919Z,27.07
2018-07-22T16:59:20.266Z,26.91
2018-07-22T17:01:46.578Z,26.80
2018-07-22T17:04:12.883Z,26.77
2018-07-22T17:06:39.201Z,26.75
2018-07-22T17:09:05.514Z,26.73
2018-07-22T17:11:31.826Z,26.73
2018-07-22T17:13:59.196Z,26.74
2018-07-22T17:16:25.511Z,26.72
2018-07-22T17:18:51.846Z,26.63
2018-07-22T17:21:18.152Z,26.55
2018-07-22T17:23:44.468Z,26.51
2018-07-22T17:26:10.784Z,26.46
2018-07-22T17:28:37.097Z,26.43
2018-07-22T17:31:03.447Z,26.39
2018-07-22T17:33:29.739Z,26.34
2018-07-22T17:35:56.055Z,26.28
2018-07-22T17:38:22.364Z,26.24
2018-07-22T17:40:48.720Z,26.20
2018-07-22T17:43:15.039Z,26.15
2018-07-22T17:45:41.356Z,26.08
2018-07-22T17:48:07.705Z,25.95
2018-07-22T17:50:34.056Z,25.84
2018-07-22T17:53:00.405Z,25.74
2018-07-22T17:55:26.716Z,25.71
2018-07-22T17:57:53.034Z,25.62
2018-07-22T18:00:19.342Z,25.46
2018-07-22T18:02:45.664Z,25.42
2018-07-22T18:05:12.029Z,25.39
2018-07-22T18:07:38.341Z,25.33
2018-07-22T18:10:04.663Z,25.27
2018-07-22T18:12:30.979Z,25.23
2018-07-22T18:14:57.301Z,25.21
2018-07-22T18:17:23.652Z,25.19
2018-07-22T18:19:50.088Z,25.19
2018-07-22T18:22:16.275Z,25.17
2018-07-22T18:24:42.595Z,25.12
2018-07-22T18:27:08.904Z,25.10
2018-07-22T18:29:35.215Z,25.08
2018-07-22T18:32:01.555Z,25.05
2018-07-22T18:34:27.841Z,25.07
2018-07-22T18:36:54.165Z,25.06
2018-07-22T18:39:20.518Z,25.04
2018-07-22T18:41:46.791Z,25.09
2018-07-22T18:44:13.171Z,25.10
2018-07-22T18:46:39.512Z,25.11
2018-07-22T18:49:05.832Z,25.06
2018-07-22T18:51:32.149Z,25.00
2018-07-22T18:53:58.464Z,24.93
2018-07-22T18:56:24.817Z,24.86
2018-07-22T18:58:51.178Z,24.84
2018-07-22T19:01:17.488Z,24.73
2018-07-22T19:03:43.807Z,24.53
2018-07-22T19:06:10.117Z,24.36
2018-07-22T19:08:36.427Z,24.26
2018-07-22T19:11:02.746Z,24.20
2018-07-22T19:13:29.070Z,24.14
2018-07-22T19:15:55.383Z,24.10
2018-07-22T19:18:21.725Z,24.01
2018-07-22T19:20:48.043Z,23.92
2018-07-22T19:23:14.357Z,23.85
2018-07-22T19:25:40.671Z,23.73
2018-07-22T19:28:06.980Z,23.69
2018-07-22T19:30:33.339Z,23.62
2018-07-22T19:32:59.646Z,23.58
2018-07-22T19:35:26.004Z,23.57
2018-07-22T19:37:52.337Z,23.56
2018-07-22T19:40:18.725Z,23.50
2018-07-22T19:42:45.048Z,23.39
2018-07-22T19:45:11.356Z,23.40
2018-07-22T19:47:37.667Z,23.47
2018-07-22T19:50:03.980Z,23.50
2018-07-22T19:52:30.329Z,23.48
2018-07-22T19:54:56.670Z,23.48
2018-07-22T19:57:23.031Z,23.48
2018-07-22T19:59:49.385Z,23.49
2018-07-22T20:02:15.697Z,23.66
2018-07-22T20:04:42.006Z,23.85
2018-07-22T20:07:08.337Z,23.96
2018-07-22T20:09:34.691Z,23.95
2018-07-22T20:12:00.978Z,23.89
2018-07-22T20:14:27.345Z,23.79
2018-07-22T20:16:53.698Z,23.75
2018-07-22T20:19:20.062Z,23.74
2018-07-22T20:21:46.393Z,23.74
2018-07-22T20:24:12.750Z,23.67
2018-07-22T20:26:39.043Z,23.53
2018-07-22T20:29:05.371Z,23.46
2018-07-22T20:31:31.702Z,23.41
2018-07-22T20:33:58.039Z,23.37
2018-07-22T20:36:24.368Z,23.31
2018-07-22T20:38:50.670Z,23.28
2018-07-22T20:41:17.013Z,23.25
2018-07-22T20:43:43.324Z,23.22
2018-07-22T20:46:09.650Z,23.16
2018-07-22T20:48:35.959Z,23.13
2018-07-22T20:51:02.313Z,23.17
2018-07-22T20:53:28.593Z,23.21
2018-07-22T20:55:54.903Z,23.25
2018-07-22T20:58:21.226Z,23.21
2018-07-22T21:00:47.545Z,23.19
2018-07-22T21:03:13.875Z,23.13
2018-07-22T21:05:40.192Z,23.07
2018-07-22T21:08:06.539Z,23.00
2018-07-22T21:10:32.822Z,22.96
2018-07-22T21:12:59.146Z,22.96
2018-07-22T21:15:25.458Z,22.99
2018-07-22T21:17:51.777Z,22.95
2018-07-22T21:20:18.084Z,22.91
2018-07-22T21:22:44.426Z,22.83
2018-07-22T21:25:10.735Z,22.77
2018-07-22T21:27:37.049Z,22.75
2018-07-22T21:30:04.452Z,22.83
2018-07-22T21:32:30.747Z,22.88
2018-07-22T21:34:57.063Z,22.91
2018-07-22T21:37:23.376Z,22.90
2018-07-22T21:39:49.687Z,22.86
2018-07-22T21:42:16.006Z,22.90
2018-07-22T21:44:42.320Z,22.94
2018-07-22T21:47:08.661Z,22.98
2018-07-22T21:49:34.979Z,23.11
2018-07-22T21:52:01.296Z,23.08
2018-07-22T21:54:27.651Z,23.07
2018-07-22T21:56:54.005Z,23.01
2018-07-22T21:59:20.325Z,23.03
2018-07-22T22:01:46.640Z,23.03
2018-07-22T22:04:12.952Z,22.96
2018-07-22T22:06:39.270Z,22.98
2018-07-22T22:09:05.580Z,23.07
2018-07-22T22:11:31.902Z,23.03
2018-07-22T22:13:58.213Z,22.98
2018-07-22T22:16:24.525Z,22.99
2018-07-22T22:18:50.884Z,23.02
2018-07-22T22:21:17.198Z,23.03
2018-07-22T22:23:43.559Z,22.99
2018-07-22T22:26:09.865Z,22.92
2018-07-22T22:28:36.176Z,22.88
2018-07-22T22:31:02.524Z,22.83
2018-07-22T22:33:28.837Z,22.76
2018-07-22T22:35:55.147Z,22.73
2018-07-22T22:40:47.810Z,22.71
2018-07-22T22:43:14.115Z,22.65
2018-07-22T22:45:40.468Z,22.58
2018-07-22T22:48:06.776Z,22.62
2018-07-22T22:50:33.094Z,22.59
2018-07-22T22:52:59.407Z,22.60
2018-07-22T22:55:25.720Z,22.63
2018-07-22T22:57:52.082Z,22.64
2018-07-22T23:00:18.389Z,22.64
2018-07-22T23:02:44.702Z,22.62
2018-07-22T23:05:11.013Z,22.52
2018-07-22T23:07:37.326Z,22.53
2018-07-22T23:10:03.638Z,22.54
2018-07-22T23:12:29.956Z,22.53
2018-07-22T23:14:56.259Z,22.51
2018-07-22T23:17:22.567Z,22.49
2018-07-22T23:19:48.892Z,22.47
2018-07-22T23:22:15.211Z,22.40
2018-07-22T23:24:41.556Z,22.33
2018-07-22T23:27:07.868Z,22.33
2018-07-22T23:29:34.185Z,22.28
2018-07-22T23:32:00.496Z,22.31
2018-07-22T23:34:26.812Z,22.30
2018-07-22T23:36:53.199Z,22.24
2018-07-22T23:39:19.520Z,22.24
2018-07-22T23:41:45.837Z,22.23
2018-07-22T23:44:12.148Z,22.23
2018-07-22T23:46:38.456Z,22.21
2018-07-22T23:49:04.783Z,22.13
2018-07-22T23:51:31.093Z,22.10
2018-07-22T23:53:57.444Z,22.08
2018-07-22T23:56:23.806Z,22.06
2018-07-22T23:58:50.151Z,22.03
